createdAt,value
2017-07-16T00:01:03.638Z,16.14
2017-07-16T00:01:44.130Z,16.15
2017-07-16T00:02:24.658Z,16.11
2017-07-16T00:03:05.084Z,16.12
2017-07-16T00:03:45.550Z,16.11
2017-07-16T00:04:26.013Z,16.23
2017-07-16T00:06:03.418Z,16.09
2017-07-16T00:06:43.878Z,16.12
2017-07-16T00:07:24.345Z,16.2
2017-07-16T00:08:04.845Z,16.14
2017-07-16T00:08:45.336Z,16.3
2017-07-16T00:09:25.745Z,16.33
2017-07-16T00:10:06.202Z,16.15
2017-07-16T00:10:46.637Z,16.21
2017-07-16T00:11:27.093Z,16.35
2017-07-16T00:12:07.553Z,16.3
2017-07-16T00:12:47.980Z,16.25
2017-07-16T00:13:28.448Z,16.35
2017-07-16T00:15:41.121Z,16.05
2017-07-16T00:16:21.579Z,16.01
2017-07-16T00:17:02.035Z,15.96
2017-07-16T00:17:42.534Z,15.92
2017-07-16T00:18:23.097Z,16
2017-07-16T00:19:03.497Z,15.94
2017-07-16T00:19:43.952Z,16
2017-07-16T00:20:24.414Z,16
2017-07-16T00:21:04.900Z,15.97
2017-07-16T00:21:45.389Z,15.96
2017-07-16T00:22:25.867Z,16
2017-07-16T00:23:06.333Z,15.94
2017-07-16T00:23:46.811Z,15.89
2017-07-16T00:24:27.280Z,15.92
2017-07-16T00:25:07.771Z,15.89
2017-07-16T00:25:48.278Z,15.84
2017-07-16T00:26:28.727Z,15.93
2017-07-16T00:27:09.175Z,15.94
2017-07-16T00:27:49.671Z,15.96
2017-07-16T00:28:30.183Z,15.93
2017-07-16T00:29:10.671Z,15.94
2017-07-16T00:29:51.110Z,15.97
2017-07-16T00:30:31.632Z,15.93
2017-07-16T00:31:12.115Z,15.9
2017-07-16T00:31:52.590Z,15.87
2017-07-16T00:32:33.034Z,15.89
2017-07-16T00:33:13.541Z,15.92
2017-07-16T00:33:54.066Z,15.86
2017-07-16T00:34:34.513Z,15.96
2017-07-16T00:35:14.969Z,16.02
2017-07-16T00:35:55.439Z,15.97
2017-07-16T00:36:35.893Z,16.02
2017-07-16T00:37:16.364Z,15.97
2017-07-16T00:37:56.841Z,15.97
2017-07-16T00:38:37.269Z,16
2017-07-16T00:39:17.680Z,15.94
2017-07-16T00:39:58.173Z,15.9
2017-07-16T00:40:38.658Z,15.86
2017-07-16T00:41:19.108Z,16.04
2017-07-16T00:41:59.546Z,16.05
2017-07-16T00:42:39.999Z,15.97
2017-07-16T00:43:20.425Z,15.97
2017-07-16T00:44:00.849Z,15.89
2017-07-16T00:44:41.308Z,15.92
2017-07-16T00:46:38.947Z,15.86
2017-07-16T00:47:19.412Z,15.92
2017-07-16T00:47:59.870Z,15.97
2017-07-16T00:48:40.365Z,16.04
2017-07-16T00:49:20.853Z,16.12
2017-07-16T00:50:01.343Z,16.15
2017-07-16T00:50:41.837Z,16.21
2017-07-16T00:51:22.312Z,16.11
2017-07-16T00:52:02.759Z,16.23
2017-07-16T00:52:43.240Z,16.17
2017-07-16T00:53:23.762Z,16.21
2017-07-16T00:54:04.223Z,16.21
2017-07-16T00:54:44.723Z,16.15
2017-07-16T00:55:25.188Z,16.17
2017-07-16T00:56:05.667Z,16.27
2017-07-16T00:56:46.124Z,16.24
2017-07-16T00:57:26.578Z,16.33
2017-07-16T00:58:07.038Z,16.25
2017-07-16T00:58:47.501Z,16.31
2017-07-16T00:59:27.996Z,16.28
2017-07-16T01:00:08.458Z,16.33
2017-07-16T01:00:48.921Z,16.33
2017-07-16T01:01:29.370Z,16.25
2017-07-16T01:02:09.812Z,16.23
2017-07-16T01:03:57.300Z,16.15
2017-07-16T01:04:37.758Z,16.14
2017-07-16T01:05:18.217Z,16.23
2017-07-16T01:05:58.683Z,16.28
2017-07-16T01:06:39.134Z,16.28
2017-07-16T01:07:19.590Z,16.31
2017-07-16T01:08:00.102Z,16.28
2017-07-16T01:08:40.569Z,16.27
2017-07-16T01:09:20.979Z,16.31
2017-07-16T01:11:13.575Z,16.35
2017-07-16T01:11:53.989Z,16.42
2017-07-16T01:12:34.464Z,16.43
2017-07-16T01:13:14.942Z,16.33
2017-07-16T01:13:55.445Z,16.46
2017-07-16T01:14:35.871Z,16.48
2017-07-16T01:15:16.352Z,16.34
2017-07-16T01:15:56.817Z,16.35
2017-07-16T01:16:37.323Z,16.31
2017-07-16T01:17:17.828Z,16.38
2017-07-16T01:17:58.306Z,16.28
2017-07-16T01:18:38.811Z,16.3
2017-07-16T01:19:19.387Z,16.3
2017-07-16T01:19:59.858Z,16.27
2017-07-16T01:20:40.327Z,16.39
2017-07-16T01:21:20.821Z,16.38
2017-07-16T01:23:33.598Z,16.38
2017-07-16T01:24:14.055Z,16.46
2017-07-16T01:24:54.524Z,16.34
2017-07-16T01:25:35.022Z,16.45
2017-07-16T01:26:15.482Z,16.31
2017-07-16T01:26:55.964Z,16.31
2017-07-16T01:27:36.462Z,16.17
2017-07-16T01:28:16.934Z,16.11
2017-07-16T01:28:57.413Z,16.12
2017-07-16T01:29:37.868Z,16.02
2017-07-16T01:30:18.347Z,16
2017-07-16T01:30:58.784Z,15.89
2017-07-16T01:31:39.284Z,15.87
2017-07-16T01:32:19.752Z,15.86
2017-07-16T01:34:12.521Z,15.9
2017-07-16T01:34:52.794Z,15.92
2017-07-16T01:35:33.244Z,15.96
2017-07-16T01:36:13.670Z,16.02
2017-07-16T01:38:06.496Z,16.01
2017-07-16T01:38:46.673Z,16
2017-07-16T01:39:27.099Z,15.94
2017-07-16T01:41:04.552Z,16.01
2017-07-16T01:41:44.987Z,16.02
2017-07-16T01:42:25.443Z,16.12
2017-07-16T01:43:05.926Z,16.11
2017-07-16T01:43:46.420Z,16.07
2017-07-16T01:44:26.878Z,16.14
2017-07-16T01:45:07.294Z,16.11
2017-07-16T01:45:47.736Z,16.24
2017-07-16T01:46:28.182Z,16.2
2017-07-16T01:47:08.648Z,16.24
2017-07-16T01:47:49.120Z,16.33
2017-07-16T01:48:29.580Z,16.23
2017-07-16T01:49:10.095Z,16.33
2017-07-16T01:49:50.544Z,16.33
2017-07-16T01:50:30.979Z,16.33
2017-07-16T01:51:11.407Z,16.17
2017-07-16T01:51:51.859Z,16.11
2017-07-16T01:52:32.294Z,16.05
2017-07-16T01:53:12.774Z,16.01
2017-07-16T01:53:53.257Z,15.97
2017-07-16T01:54:33.760Z,15.89
2017-07-16T01:55:14.233Z,15.84
2017-07-16T01:55:54.706Z,15.86
2017-07-16T01:56:35.154Z,15.8
2017-07-16T01:57:15.632Z,15.8
2017-07-16T01:57:56.079Z,15.83
2017-07-16T01:58:36.530Z,15.86
2017-07-16T02:00:14.319Z,15.84
2017-07-16T02:00:54.404Z,15.9
2017-07-16T02:01:34.870Z,15.86
2017-07-16T02:02:15.318Z,15.84
2017-07-16T02:02:55.796Z,15.84
2017-07-16T02:03:36.251Z,15.84
2017-07-16T02:04:16.713Z,15.83
2017-07-16T02:04:57.166Z,15.89
2017-07-16T02:05:37.711Z,15.86
2017-07-16T02:06:18.217Z,15.89
2017-07-16T02:08:05.684Z,15.86
2017-07-16T02:08:46.225Z,15.89
2017-07-16T02:09:26.639Z,15.86
2017-07-16T02:10:07.121Z,15.93
2017-07-16T02:10:47.576Z,15.96
2017-07-16T02:11:28.011Z,15.96
2017-07-16T02:12:08.471Z,15.96
2017-07-16T02:12:48.925Z,16.07
2017-07-16T02:13:29.380Z,16.05
2017-07-16T02:14:09.824Z,16.09
2017-07-16T02:15:57.637Z,16.23
2017-07-16T02:16:38.162Z,16.31
2017-07-16T02:17:18.601Z,16.33
2017-07-16T02:17:59.055Z,16.38
2017-07-16T02:18:39.659Z,16.41
2017-07-16T02:19:20.094Z,16.31
2017-07-16T02:20:00.607Z,16.15
2017-07-16T02:20:41.037Z,16.23
2017-07-16T02:21:21.507Z,16.12
2017-07-16T02:22:01.986Z,16.17
2017-07-16T02:22:42.458Z,16.11
2017-07-16T02:23:22.903Z,16.12
2017-07-16T02:24:03.379Z,16.09
2017-07-16T02:24:43.780Z,16.12
2017-07-16T02:25:24.196Z,16.12
2017-07-16T02:26:04.658Z,16.08
2017-07-16T02:27:41.999Z,16.08
2017-07-16T02:28:22.498Z,16.23
2017-07-16T02:29:02.943Z,16.27
2017-07-16T02:29:43.429Z,16.27
2017-07-16T02:30:23.913Z,16.28
2017-07-16T02:31:04.374Z,16.33
2017-07-16T02:31:44.808Z,16.27
2017-07-16T02:32:25.236Z,16.38
2017-07-16T02:33:05.667Z,16.31
2017-07-16T02:33:46.130Z,16.25
2017-07-16T02:34:26.592Z,16.23
2017-07-16T02:35:06.999Z,16.17
2017-07-16T02:35:47.458Z,16.11
2017-07-16T02:36:27.899Z,16.08
2017-07-16T02:37:08.895Z,16.08
2017-07-16T02:37:49.354Z,16.07
2017-07-16T02:39:36.799Z,15.97
2017-07-16T02:40:17.308Z,16.04
2017-07-16T02:40:57.786Z,16.04
2017-07-16T02:41:38.949Z,16.07
2017-07-16T02:42:19.481Z,16.15
2017-07-16T02:42:59.912Z,16.21
2017-07-16T02:43:40.343Z,16.17
2017-07-16T02:44:20.778Z,16.27
2017-07-16T02:45:02.096Z,16.17
2017-07-16T02:45:42.566Z,16.24
2017-07-16T02:46:23.004Z,16.24
2017-07-16T02:47:03.514Z,16.25
2017-07-16T02:47:43.937Z,16.14
2017-07-16T02:48:24.388Z,16.24
2017-07-16T02:49:04.845Z,16.24
2017-07-16T02:50:42.258Z,16.23
2017-07-16T02:51:22.716Z,16.2
2017-07-16T02:52:03.213Z,16.27
2017-07-16T02:52:43.704Z,16.24
2017-07-16T02:53:24.182Z,16.17
2017-07-16T02:54:04.661Z,16.25
2017-07-16T02:54:45.141Z,16.21
2017-07-16T02:55:25.604Z,16.3
2017-07-16T02:56:06.117Z,16.27
2017-07-16T02:56:46.568Z,16.38
2017-07-16T02:58:59.605Z,16.42
2017-07-16T02:59:39.971Z,16.41
2017-07-16T03:00:20.427Z,16.39
2017-07-16T03:01:00.883Z,16.41
2017-07-16T03:01:41.340Z,16.41
2017-07-16T03:02:21.786Z,16.43
2017-07-16T03:04:09.265Z,16.34
2017-07-16T03:04:49.722Z,16.39
2017-07-16T03:05:30.182Z,16.3
2017-07-16T03:06:10.640Z,16.38
2017-07-16T03:06:51.073Z,16.41
2017-07-16T03:07:31.507Z,16.39
2017-07-16T03:08:11.984Z,16.33
2017-07-16T03:08:52.466Z,16.43
2017-07-16T03:09:32.926Z,16.43
2017-07-16T03:10:13.366Z,16.38
2017-07-16T03:10:53.806Z,16.39
2017-07-16T03:11:34.260Z,16.35
2017-07-16T03:12:14.713Z,16.48
2017-07-16T03:12:55.205Z,16.43
2017-07-16T03:13:35.606Z,16.48
2017-07-16T03:14:16.030Z,16.48
2017-07-16T03:14:56.455Z,16.52
2017-07-16T03:15:36.913Z,16.52
2017-07-16T03:16:17.373Z,16.52
2017-07-16T03:16:57.844Z,16.66
2017-07-16T03:17:38.265Z,16.66
2017-07-16T03:18:18.744Z,16.68
2017-07-16T03:20:31.438Z,16.66
2017-07-16T03:21:12.097Z,16.6
2017-07-16T03:21:52.411Z,16.7
2017-07-16T03:22:32.884Z,16.64
2017-07-16T03:23:13.385Z,16.7
2017-07-16T03:23:53.837Z,16.61
2017-07-16T03:24:34.329Z,16.6
2017-07-16T03:25:14.788Z,16.64
2017-07-16T03:25:55.275Z,16.5
2017-07-16T03:26:35.754Z,16.57
2017-07-16T03:27:16.273Z,16.56
2017-07-16T03:27:56.757Z,16.41
2017-07-16T03:28:37.206Z,16.39
2017-07-16T03:29:17.690Z,16.39
2017-07-16T03:29:58.167Z,16.43
2017-07-16T03:30:38.660Z,16.49
2017-07-16T03:31:19.135Z,16.34
2017-07-16T03:31:59.570Z,16.25
2017-07-16T03:32:40.043Z,16.3
2017-07-16T03:33:20.541Z,16.25
2017-07-16T03:34:01.009Z,16.21
2017-07-16T03:34:41.517Z,16.3
2017-07-16T03:35:21.978Z,16.33
2017-07-16T03:36:02.446Z,16.35
2017-07-16T03:36:42.906Z,16.33
2017-07-16T03:37:23.371Z,16.34
2017-07-16T03:38:03.855Z,16.28
2017-07-16T03:38:44.346Z,16.27
2017-07-16T03:39:24.763Z,16.23
2017-07-16T03:40:05.223Z,16.17
2017-07-16T03:40:45.687Z,16.17
2017-07-16T03:41:26.119Z,16.21
2017-07-16T03:42:06.634Z,16.23
2017-07-16T03:42:47.115Z,16.15
2017-07-16T03:43:27.541Z,16.17
2017-07-16T03:44:07.973Z,16.14
2017-07-16T03:44:48.505Z,16.12
2017-07-16T03:45:29.030Z,16.24
2017-07-16T03:46:09.437Z,16.17
2017-07-16T03:46:49.897Z,16.2
2017-07-16T03:47:30.343Z,16.27
2017-07-16T03:48:10.897Z,16.27
2017-07-16T03:48:51.347Z,16.21
2017-07-16T03:49:31.809Z,16.27
2017-07-16T03:50:12.301Z,16.21
2017-07-16T03:50:52.759Z,16.27
2017-07-16T03:51:33.188Z,16.35
2017-07-16T03:53:10.559Z,16.43
2017-07-16T03:53:51.046Z,16.52
2017-07-16T03:54:31.525Z,16.48
2017-07-16T03:55:11.954Z,16.52
2017-07-16T03:55:52.406Z,16.6
2017-07-16T03:56:32.837Z,16.7
2017-07-16T03:57:13.329Z,16.7
2017-07-16T03:57:53.803Z,16.68
2017-07-16T03:58:34.251Z,16.67
2017-07-16T03:59:14.693Z,16.79
2017-07-16T03:59:55.137Z,16.81
2017-07-16T04:01:32.488Z,16.86
2017-07-16T04:02:12.985Z,16.91
2017-07-16T04:02:53.463Z,16.93
2017-07-16T04:03:33.979Z,16.96
2017-07-16T04:04:14.449Z,16.88
2017-07-16T04:04:54.940Z,16.94
2017-07-16T04:05:35.389Z,17.01
2017-07-16T04:06:15.920Z,16.98
2017-07-16T04:06:56.356Z,16.98
2017-07-16T04:07:36.852Z,16.93
2017-07-16T04:08:17.323Z,16.93
2017-07-16T04:08:57.816Z,17
2017-07-16T04:09:38.317Z,17.04
2017-07-16T04:10:18.769Z,17.04
2017-07-16T04:10:59.273Z,17.06
2017-07-16T04:11:39.735Z,17.03
2017-07-16T04:12:20.194Z,17.04
2017-07-16T04:13:00.669Z,17.03
2017-07-16T04:13:41.085Z,17.07
2017-07-16T04:14:21.532Z,17.11
2017-07-16T04:15:02.035Z,17.03
2017-07-16T04:15:42.509Z,17.11
2017-07-16T04:16:22.919Z,17.07
2017-07-16T04:17:03.400Z,17.08
2017-07-16T04:17:43.869Z,17.01
2017-07-16T04:18:24.333Z,17.08
2017-07-16T04:19:04.764Z,17.12
2017-07-16T04:19:45.229Z,17.12
2017-07-16T04:20:25.688Z,17.15
2017-07-16T04:21:06.181Z,17.14
2017-07-16T04:21:46.645Z,17.19
2017-07-16T04:22:27.063Z,17.28
2017-07-16T04:23:07.516Z,17.22
2017-07-16T04:24:55.027Z,17.43
2017-07-16T04:25:35.436Z,17.48
2017-07-16T04:26:15.905Z,17.49
2017-07-16T04:28:28.682Z,17.49
2017-07-16T04:29:09.113Z,17.44
2017-07-16T04:29:49.588Z,17.46
2017-07-16T04:30:30.070Z,17.56
2017-07-16T04:31:10.551Z,17.51
2017-07-16T04:31:50.977Z,17.59
2017-07-16T04:32:31.415Z,17.54
2017-07-16T04:33:11.874Z,17.55
2017-07-16T04:33:52.350Z,17.55
2017-07-16T04:34:32.799Z,17.56
2017-07-16T04:35:13.236Z,17.71
2017-07-16T04:35:53.742Z,17.72
2017-07-16T04:36:34.339Z,17.68
2017-07-16T04:37:14.763Z,17.71
2017-07-16T04:37:55.196Z,17.52
2017-07-16T04:38:35.661Z,17.4
2017-07-16T04:39:16.124Z,17.44
2017-07-16T04:41:13.761Z,17.56
2017-07-16T04:41:54.216Z,17.52
2017-07-16T04:42:34.744Z,17.56
2017-07-16T04:43:15.217Z,17.62
2017-07-16T04:43:55.726Z,17.48
2017-07-16T04:44:36.181Z,17.49
2017-07-16T04:45:16.685Z,17.44
2017-07-16T04:45:57.134Z,17.51
2017-07-16T04:46:37.620Z,17.38
2017-07-16T04:47:18.111Z,17.25
2017-07-16T04:47:58.568Z,17.21
2017-07-16T04:48:39.034Z,17.11
2017-07-16T04:49:19.481Z,17.11
2017-07-16T04:50:00.011Z,17.08
2017-07-16T04:50:40.496Z,17.07
2017-07-16T04:51:20.919Z,17.04
2017-07-16T04:52:01.396Z,17.06
2017-07-16T04:53:53.967Z,17.04
2017-07-16T04:54:34.379Z,17.12
2017-07-16T04:55:14.865Z,17.14
2017-07-16T04:55:55.340Z,17.07
2017-07-16T04:56:35.833Z,16.86
2017-07-16T04:57:16.290Z,16.91
2017-07-16T04:57:56.747Z,16.88
2017-07-16T04:58:37.221Z,17.01
2017-07-16T05:00:24.708Z,17.11
2017-07-16T05:01:05.188Z,17.12
2017-07-16T05:01:45.674Z,17.08
2017-07-16T05:02:26.138Z,17.18
2017-07-16T05:03:06.638Z,17.23
2017-07-16T05:03:47.113Z,17.36
2017-07-16T05:04:27.606Z,17.36
2017-07-16T05:05:08.071Z,17.37
2017-07-16T05:05:48.514Z,17.46
2017-07-16T05:06:28.991Z,17.37
2017-07-16T05:07:09.500Z,17.44
2017-07-16T05:07:49.975Z,17.43
2017-07-16T05:08:30.427Z,17.46
2017-07-16T05:09:10.896Z,17.43
2017-07-16T05:09:51.357Z,17.55
2017-07-16T05:10:31.804Z,17.59
2017-07-16T05:11:12.290Z,17.48
2017-07-16T05:11:52.742Z,17.46
2017-07-16T05:12:33.186Z,17.56
2017-07-16T05:13:13.607Z,17.55
2017-07-16T05:14:51.088Z,17.49
2017-07-16T05:15:31.454Z,17.54
2017-07-16T05:16:11.915Z,17.46
2017-07-16T05:16:52.350Z,17.49
2017-07-16T05:17:32.813Z,17.46
2017-07-16T05:18:13.275Z,17.51
2017-07-16T05:18:53.751Z,17.62
2017-07-16T05:19:34.200Z,17.7
2017-07-16T05:20:14.722Z,17.71
2017-07-16T05:20:55.147Z,17.58
2017-07-16T05:21:35.587Z,17.7
2017-07-16T05:22:16.023Z,17.7
2017-07-16T05:22:56.502Z,17.63
2017-07-16T05:23:36.937Z,17.74
2017-07-16T05:25:24.420Z,17.66
2017-07-16T05:26:04.919Z,17.66
2017-07-16T05:26:45.386Z,17.71
2017-07-16T05:27:25.845Z,17.71
2017-07-16T05:28:06.307Z,17.86
2017-07-16T05:28:46.784Z,17.82
2017-07-16T05:30:44.381Z,17.9
2017-07-16T05:31:24.856Z,17.87
2017-07-16T05:32:05.301Z,17.89
2017-07-16T05:32:45.735Z,17.87
2017-07-16T05:33:26.174Z,18.1
2017-07-16T05:34:06.627Z,18.21
2017-07-16T05:35:59.191Z,18.66
2017-07-16T05:36:39.672Z,18.76
2017-07-16T05:37:20.161Z,18.94
2017-07-16T05:38:00.639Z,19
2017-07-16T05:38:41.120Z,19.04
2017-07-16T05:39:21.599Z,19.23
2017-07-16T05:40:02.124Z,19.37
2017-07-16T05:40:42.530Z,19.36
2017-07-16T05:41:22.978Z,19.46
2017-07-16T05:42:03.432Z,19.43
2017-07-16T05:42:43.855Z,19.44
2017-07-16T05:43:24.286Z,19.47
2017-07-16T05:44:04.815Z,19.65
2017-07-16T05:44:45.224Z,19.65
2017-07-16T05:45:25.726Z,19.69
2017-07-16T05:46:06.165Z,19.66
2017-07-16T05:46:46.627Z,19.71
2017-07-16T05:47:27.049Z,19.61
2017-07-16T05:48:07.520Z,19.51
2017-07-16T05:49:54.994Z,19.58
2017-07-16T05:50:35.447Z,19.66
2017-07-16T05:51:15.929Z,19.8
2017-07-16T05:51:56.406Z,19.83
2017-07-16T05:52:36.861Z,19.92
2017-07-16T05:53:17.360Z,19.98
2017-07-16T05:53:57.853Z,20.03
2017-07-16T05:56:10.635Z,20.14
2017-07-16T05:56:51.074Z,19.94
2017-07-16T05:57:31.543Z,20.14
2017-07-16T05:58:11.991Z,20.14
2017-07-16T05:58:52.441Z,20.32
2017-07-16T05:59:32.886Z,20.23
2017-07-16T06:01:30.565Z,20.35
2017-07-16T06:02:11.027Z,20.18
2017-07-16T06:02:51.513Z,20.16
2017-07-16T06:03:31.956Z,20.08
2017-07-16T06:04:12.406Z,20.16
2017-07-16T06:04:52.841Z,20.18
2017-07-16T06:05:33.287Z,20.16
2017-07-16T06:07:46.064Z,20.31
2017-07-16T06:08:26.533Z,20.33
2017-07-16T06:09:07.035Z,20.31
2017-07-16T06:09:47.524Z,20.29
2017-07-16T06:10:27.998Z,20.29
2017-07-16T06:11:08.438Z,20.31
2017-07-16T06:11:48.962Z,20.39
2017-07-16T06:12:29.454Z,20.43
2017-07-16T06:13:09.940Z,20.38
2017-07-16T06:13:50.470Z,20.41
2017-07-16T06:14:30.941Z,20.36
2017-07-16T06:15:11.436Z,20.41
2017-07-16T06:15:51.905Z,20.42
2017-07-16T06:16:32.397Z,20.61
2017-07-16T06:17:12.875Z,20.5
2017-07-16T06:17:53.327Z,20.54
2017-07-16T06:18:33.788Z,20.54
2017-07-16T06:19:14.235Z,20.58
2017-07-16T06:19:54.667Z,20.64
2017-07-16T06:20:35.129Z,20.54
2017-07-16T06:21:15.586Z,20.54
2017-07-16T06:21:56.004Z,20.42
2017-07-16T06:22:36.480Z,20.52
2017-07-16T06:23:16.987Z,20.61
2017-07-16T06:23:57.446Z,20.52
2017-07-16T06:24:37.908Z,20.62
2017-07-16T06:25:18.359Z,20.61
2017-07-16T06:25:58.825Z,20.66
2017-07-16T06:26:39.279Z,20.79
2017-07-16T06:27:19.796Z,20.88
2017-07-16T06:28:00.233Z,20.88
2017-07-16T06:28:40.652Z,20.84
2017-07-16T06:29:21.106Z,20.85
2017-07-16T06:30:01.591Z,21.13
2017-07-16T06:30:42.042Z,20.94
2017-07-16T06:31:22.576Z,20.94
2017-07-16T06:32:03.032Z,20.95
2017-07-16T06:32:43.510Z,20.91
2017-07-16T06:33:23.979Z,20.89
2017-07-16T06:34:04.437Z,20.8
2017-07-16T06:34:44.937Z,20.59
2017-07-16T06:36:58.097Z,20.7
2017-07-16T06:37:38.131Z,20.59
2017-07-16T06:38:18.567Z,20.67
2017-07-16T06:38:59.022Z,20.69
2017-07-16T06:40:46.505Z,20.7
2017-07-16T06:41:27.003Z,20.88
2017-07-16T06:42:07.476Z,20.94
2017-07-16T06:42:47.918Z,20.95
2017-07-16T06:43:28.371Z,21.12
2017-07-16T06:44:08.835Z,21.28
2017-07-16T06:44:49.289Z,21.4
2017-07-16T06:45:29.779Z,21.62
2017-07-16T06:46:10.262Z,21.59
2017-07-16T06:46:50.699Z,21.77
2017-07-16T06:47:31.158Z,21.92
2017-07-16T06:48:11.602Z,22.12
2017-07-16T06:50:24.333Z,22.33
2017-07-16T06:51:04.791Z,22.05
2017-07-16T06:51:45.307Z,21.82
2017-07-16T06:52:25.781Z,22.14
2017-07-16T06:53:06.308Z,22.17
2017-07-16T06:53:46.744Z,22.3
2017-07-16T06:54:27.241Z,22.64
2017-07-16T06:55:07.726Z,22.46
2017-07-16T06:55:48.215Z,22.45
2017-07-16T06:56:28.716Z,22.65
2017-07-16T06:57:09.114Z,22.54
2017-07-16T06:57:49.614Z,22.45
2017-07-16T06:58:30.067Z,22.6
2017-07-16T06:59:10.510Z,22.73
2017-07-16T06:59:50.952Z,22.58
2017-07-16T07:00:31.438Z,22.73
2017-07-16T07:01:11.896Z,22.67
2017-07-16T07:01:52.315Z,22.7
2017-07-16T07:02:32.793Z,22.35
2017-07-16T07:03:13.213Z,22.52
2017-07-16T07:03:53.654Z,22.42
2017-07-16T07:04:34.110Z,22.45
2017-07-16T07:05:14.563Z,22.45
2017-07-16T07:05:55.022Z,22.54
2017-07-16T07:06:35.480Z,22.45
2017-07-16T07:07:15.933Z,22.55
2017-07-16T07:07:56.393Z,22.7
2017-07-16T07:08:36.970Z,22.64
2017-07-16T07:09:17.462Z,22.61
2017-07-16T07:09:57.898Z,22.55
2017-07-16T07:10:38.356Z,22.4
2017-07-16T07:11:18.794Z,22.45
2017-07-16T07:11:59.246Z,22.64
2017-07-16T07:12:39.755Z,22.76
2017-07-16T07:14:27.285Z,22.57
2017-07-16T07:15:07.710Z,22.51
2017-07-16T07:15:48.191Z,22.37
2017-07-16T07:16:28.658Z,22.15
2017-07-16T07:17:09.101Z,22.22
2017-07-16T07:17:49.546Z,22.42
2017-07-16T07:19:37.029Z,22.17
2017-07-16T07:20:17.484Z,22.39
2017-07-16T07:20:57.952Z,22.36
2017-07-16T07:21:38.425Z,22.62
2017-07-16T07:22:18.921Z,22.76
2017-07-16T07:22:59.415Z,22.67
2017-07-16T07:23:39.880Z,22.79
2017-07-16T07:24:20.317Z,22.65
2017-07-16T07:25:00.759Z,22.6
2017-07-16T07:26:53.682Z,22.62
2017-07-16T07:27:34.130Z,22.58
2017-07-16T07:28:14.688Z,22.65
2017-07-16T07:28:55.139Z,22.61
2017-07-16T07:29:35.622Z,22.77
2017-07-16T07:30:16.153Z,22.79
2017-07-16T07:30:56.615Z,22.73
2017-07-16T07:31:37.101Z,22.67
2017-07-16T07:32:17.600Z,22.88
2017-07-16T07:32:58.096Z,23
2017-07-16T07:33:38.576Z,23.22
2017-07-16T07:34:19.074Z,23.25
2017-07-16T07:34:59.533Z,23.5
2017-07-16T07:35:40.107Z,23.38
2017-07-16T07:36:20.487Z,23.63
2017-07-16T07:37:00.965Z,23.9
2017-07-16T07:37:41.408Z,24.09
2017-07-16T07:39:54.314Z,23.69
2017-07-16T07:40:34.609Z,23.35
2017-07-16T07:41:15.064Z,23.58
2017-07-16T07:41:55.545Z,23.58
2017-07-16T07:42:36.015Z,23.79
2017-07-16T07:43:16.439Z,24.06
2017-07-16T07:43:56.899Z,23.72
2017-07-16T07:45:54.957Z,24.16
2017-07-16T07:46:35.151Z,24.06
2017-07-16T07:48:27.953Z,24.12
2017-07-16T07:49:08.234Z,23.95
2017-07-16T07:49:48.662Z,24.1
2017-07-16T07:50:29.125Z,24.31
2017-07-16T07:51:09.569Z,24.08
2017-07-16T07:53:02.177Z,24.37
2017-07-16T07:53:42.643Z,24.45
2017-07-16T07:54:23.099Z,24.27
2017-07-16T07:55:03.562Z,24.18
2017-07-16T07:55:44.041Z,24.22
2017-07-16T07:56:24.518Z,24.31
2017-07-16T07:58:17.177Z,24.15
2017-07-16T07:58:57.605Z,24.12
2017-07-16T07:59:38.078Z,24
2017-07-16T08:00:18.516Z,23.7
2017-07-16T08:00:58.958Z,23.78
2017-07-16T08:02:36.566Z,24.06
2017-07-16T08:03:16.857Z,24.09
2017-07-16T08:03:57.314Z,24.1
2017-07-16T08:04:37.745Z,24.42
2017-07-16T08:05:18.239Z,24.02
2017-07-16T08:05:58.705Z,23.88
2017-07-16T08:06:39.153Z,23.55
2017-07-16T08:07:19.586Z,23.68
2017-07-16T08:08:57.000Z,23.97
2017-07-16T08:09:37.454Z,23.98
2017-07-16T08:10:17.955Z,24.24
2017-07-16T08:10:58.447Z,24.21
2017-07-16T08:11:38.958Z,24.39
2017-07-16T08:12:19.404Z,24.35
2017-07-16T08:12:59.876Z,24.61
2017-07-16T08:13:40.322Z,24.6
2017-07-16T08:14:20.802Z,24.5
2017-07-16T08:15:01.315Z,24.45
2017-07-16T08:15:41.774Z,24.55
2017-07-16T08:17:54.483Z,24.62
2017-07-16T08:18:34.961Z,24.91
2017-07-16T08:19:15.439Z,24.64
2017-07-16T08:19:55.907Z,24.93
2017-07-16T08:20:36.373Z,25.32
2017-07-16T08:21:16.813Z,25.23
2017-07-16T08:21:57.262Z,24.93
2017-07-16T08:22:37.720Z,24.8
2017-07-16T08:23:18.181Z,25.14
2017-07-16T08:23:58.636Z,25.15
2017-07-16T08:25:36.008Z,25.33
2017-07-16T08:26:16.460Z,25.51
2017-07-16T08:26:56.945Z,25.92
2017-07-16T08:27:37.382Z,25.95
2017-07-16T08:28:17.860Z,25.69
2017-07-16T08:28:58.349Z,25.21
2017-07-16T08:29:38.794Z,24.78
2017-07-16T08:30:19.241Z,24.8
2017-07-16T08:30:59.718Z,24.81
2017-07-16T08:31:40.179Z,25
2017-07-16T08:32:20.624Z,24.88
2017-07-16T08:33:01.073Z,25.17
2017-07-16T08:33:41.527Z,25.27
2017-07-16T08:34:22.029Z,25.36
2017-07-16T08:35:02.480Z,25.36
2017-07-16T08:37:15.228Z,24.98
2017-07-16T08:37:55.706Z,24.95
2017-07-16T08:38:36.183Z,25.21
2017-07-16T08:39:16.679Z,25.21
2017-07-16T08:39:57.153Z,25.08
2017-07-16T08:40:37.626Z,25.24
2017-07-16T08:41:18.065Z,25.7
2017-07-16T08:41:58.507Z,26.18
2017-07-16T08:42:38.980Z,26.47
2017-07-16T08:43:19.427Z,26.57
2017-07-16T08:43:59.931Z,26.65
2017-07-16T08:44:40.407Z,26.72
2017-07-16T08:45:20.878Z,26.94
2017-07-16T08:46:01.375Z,27.07
2017-07-16T08:46:41.844Z,27.21
2017-07-16T08:47:22.294Z,27.51
2017-07-16T08:48:02.787Z,27.55
2017-07-16T08:48:43.208Z,27.43
2017-07-16T08:50:20.609Z,27.9
2017-07-16T08:51:01.072Z,27.87
2017-07-16T08:51:41.568Z,27.39
2017-07-16T08:52:22.087Z,27.13
2017-07-16T08:53:02.520Z,27.41
2017-07-16T08:53:43.015Z,27.13
2017-07-16T08:54:23.479Z,27.27
2017-07-16T08:55:03.945Z,27.46
2017-07-16T08:55:44.408Z,27.55
2017-07-16T08:56:24.920Z,27.75
2017-07-16T08:57:05.418Z,27.88
2017-07-16T08:57:45.906Z,28.02
2017-07-16T08:58:26.387Z,27.97
2017-07-16T08:59:06.877Z,28.09
2017-07-16T08:59:47.328Z,28.71
2017-07-16T09:00:27.759Z,29.33
2017-07-16T09:02:40.661Z,29.36
2017-07-16T09:03:20.923Z,29.24
2017-07-16T09:04:01.420Z,29.31
2017-07-16T09:04:41.813Z,29.42
2017-07-16T09:05:22.269Z,29.33
2017-07-16T09:06:59.645Z,29
2017-07-16T09:07:40.127Z,29.48
2017-07-16T09:08:20.582Z,29.41
2017-07-16T09:09:01.058Z,29.18
2017-07-16T09:09:41.509Z,28.43
2017-07-16T09:10:21.968Z,28.21
2017-07-16T09:11:02.389Z,27.84
2017-07-16T09:11:42.864Z,27.75
2017-07-16T09:13:30.486Z,28.22
2017-07-16T09:14:10.848Z,28.61
2017-07-16T09:14:51.316Z,28.61
2017-07-16T09:15:31.786Z,28.95
2017-07-16T09:16:12.247Z,28.66
2017-07-16T09:18:10.120Z,28.09
2017-07-16T09:18:50.295Z,27.97
2017-07-16T09:19:30.742Z,28.29
2017-07-16T09:20:11.203Z,28
2017-07-16T09:20:51.679Z,28.06
2017-07-16T09:21:32.133Z,28.34
2017-07-16T09:22:12.607Z,27.75
2017-07-16T09:22:53.105Z,27.65
2017-07-16T09:23:33.607Z,27.44
2017-07-16T09:24:14.057Z,27.24
2017-07-16T09:26:26.888Z,26.35
2017-07-16T09:27:07.362Z,26.94
2017-07-16T09:27:47.809Z,27.24
2017-07-16T09:28:28.293Z,27.43
2017-07-16T09:29:08.735Z,27.49
2017-07-16T09:29:49.254Z,27.9
2017-07-16T09:30:29.700Z,28.21
2017-07-16T09:31:10.166Z,28.14
2017-07-16T09:31:50.668Z,28.46
2017-07-16T09:32:31.153Z,28.39
2017-07-16T09:33:11.621Z,28.66
2017-07-16T09:33:52.091Z,28.24
2017-07-16T09:34:32.542Z,28.34
2017-07-16T09:35:13.019Z,28.49
2017-07-16T09:35:53.448Z,28.55
2017-07-16T09:36:33.930Z,28.73
2017-07-16T09:37:14.415Z,28.7
2017-07-16T09:37:54.897Z,28.89
2017-07-16T09:38:35.375Z,28.95
2017-07-16T09:39:15.800Z,29.14
2017-07-16T09:39:56.214Z,29.11
2017-07-16T09:40:36.665Z,28.52
2017-07-16T09:41:17.101Z,28.54
2017-07-16T09:41:57.592Z,28.68
2017-07-16T09:42:38.094Z,28.74
2017-07-16T09:43:18.522Z,28.76
2017-07-16T09:43:59.071Z,28.76
2017-07-16T09:44:39.517Z,28.9
2017-07-16T09:45:20.062Z,29.02
2017-07-16T09:46:00.494Z,28.34
2017-07-16T09:46:40.966Z,28.73
2017-07-16T09:47:21.413Z,28.95
2017-07-16T09:48:01.860Z,29.06
2017-07-16T09:48:42.336Z,29.05
2017-07-16T09:49:22.766Z,29.26
2017-07-16T09:50:03.220Z,29.61
2017-07-16T09:50:43.672Z,29.65